createdAt,value
2019-04-28T00:01:57.322Z,98258.66
2019-04-28T00:04:25.529Z,98267.07
2019-04-28T00:06:54.033Z,98257.56
2019-04-28T00:09:23.165Z,98263.30
2019-04-28T00:11:53.364Z,98262.08
2019-04-28T00:14:22.123Z,98262.20
2019-04-28T00:16:51.156Z,98267.12
2019-04-28T00:19:20.948Z,98269.21
2019-04-28T00:21:57.091Z,98271.39
2019-04-28T00:24:43.186Z,98267.16
2019-04-28T00:27:12.044Z,98268.92
2019-04-28T00:29:45.677Z,98268.02
2019-04-28T00:32:11.212Z,98269.45
2019-04-28T00:34:41.272Z,98266.88
2019-04-28T00:37:17.412Z,98271.77
2019-04-28T00:39:45.608Z,98272.98
2019-04-28T00:42:13.809Z,98270.77
2019-04-28T00:44:43.401Z,98272.08
2019-04-28T00:47:11.789Z,98270.77
2019-04-28T00:49:48.985Z,98267.73
2019-04-28T00:52:17.819Z,98269.95
2019-04-28T00:54:46.554Z,98276.92
2019-04-28T00:57:15.039Z,98273.77
2019-04-28T00:59:54.018Z,98274.22
2019-04-28T01:02:15.078Z,98271.67
2019-04-28T01:04:43.262Z,98278.56
2019-04-28T01:07:11.581Z,98275.04
2019-04-28T01:09:41.497Z,98280.33
2019-04-28T01:12:11.222Z,98279.55
2019-04-28T01:14:40.979Z,98281.27
2019-04-28T01:17:14.850Z,98279.43
2019-04-28T01:19:49.629Z,98279.84
2019-04-28T01:22:20.179Z,98280.25
2019-04-28T01:24:49.725Z,98281.08
2019-04-28T01:27:25.650Z,98277.21
2019-04-28T01:30:05.361Z,98275.45
2019-04-28T01:32:34.510Z,98280.25
2019-04-28T01:35:02.778Z,98281.08
2019-04-28T01:37:31.007Z,98277.95
2019-04-28T01:39:59.761Z,98279.72
2019-04-28T01:42:30.116Z,98284.06
2019-04-28T01:44:58.157Z,98283.20
2019-04-28T01:47:26.463Z,98287.19
2019-04-28T01:49:54.660Z,98288.57
2019-04-28T01:52:22.862Z,98296.91
2019-04-28T01:54:51.057Z,98296.00
2019-04-28T01:57:21.364Z,98300.77
2019-04-28T01:59:50.159Z,98297.69
2019-04-28T02:02:19.922Z,98305.97
2019-04-28T02:04:49.892Z,98307.69
2019-04-28T02:07:18.318Z,98303.71
2019-04-28T02:09:46.516Z,98308.10
2019-04-28T02:12:14.714Z,98308.48
2019-04-28T02:14:42.912Z,98312.83
2019-04-28T02:17:11.115Z,98311.11
2019-04-28T02:19:41.065Z,98311.47
2019-04-28T02:22:25.735Z,98313.64
2019-04-28T02:24:55.007Z,98304.91
2019-04-28T02:27:23.620Z,98310.44
2019-04-28T02:29:51.817Z,98311.02
2019-04-28T02:32:21.281Z,98315.86
2019-04-28T02:34:50.812Z,98312.83
2019-04-28T02:37:20.563Z,98308.97
2019-04-28T02:39:50.560Z,98312.83
2019-04-28T02:42:20.899Z,98314.55
2019-04-28T02:44:50.405Z,98320.25
2019-04-28T02:47:21.608Z,98319.39
2019-04-28T02:50:00.845Z,98319.47
2019-04-28T02:52:47.781Z,98321.16
2019-04-28T02:55:15.953Z,98323.41
2019-04-28T02:57:44.165Z,98317.34
2019-04-28T03:00:12.366Z,98320.82
2019-04-28T03:02:41.602Z,98318.31
2019-04-28T03:05:11.610Z,98318.31
2019-04-28T03:07:41.043Z,98320.58
2019-04-28T03:10:11.108Z,98325.90
2019-04-28T03:12:41.408Z,98324.59
2019-04-28T03:15:10.406Z,98324.97
2019-04-28T03:17:40.738Z,98327.22
2019-04-28T03:20:10.960Z,98331.16
2019-04-28T03:22:40.864Z,98329.47
2019-04-28T03:25:10.929Z,98329.88
2019-04-28T03:27:57.384Z,98339.48
2019-04-28T03:30:35.892Z,98342.44
2019-04-28T03:33:12.000Z,98337.07
2019-04-28T03:35:35.665Z,98334.89
2019-04-28T03:38:03.868Z,98336.33
2019-04-28T03:40:33.803Z,98343.30
2019-04-28T03:43:03.326Z,98338.91
2019-04-28T03:45:42.177Z,98343.70
2019-04-28T03:48:11.480Z,98338.55
2019-04-28T03:50:41.431Z,98345.92
2019-04-28T03:53:11.081Z,98342.55
2019-04-28T03:55:41.683Z,98353.05
2019-04-28T03:58:10.447Z,98351.75
2019-04-28T04:00:40.814Z,98349.16
2019-04-28T04:03:10.965Z,98347.97
2019-04-28T04:05:40.624Z,98348.95
2019-04-28T04:08:10.905Z,98351.58
2019-04-28T04:10:43.760Z,98352.77
2019-04-28T04:13:25.568Z,98356.30
2019-04-28T04:15:55.406Z,98357.69
2019-04-28T04:18:25.263Z,98357.57
2019-04-28T04:20:53.783Z,98352.69
2019-04-28T04:23:23.356Z,98357.57
2019-04-28T04:25:51.770Z,98363.69
2019-04-28T04:28:20.685Z,98364.13
2019-04-28T04:30:50.755Z,98367.98
2019-04-28T04:33:20.809Z,98370.53
2019-04-28T04:35:51.727Z,98375.67
2019-04-28T04:38:21.762Z,98374.65
2019-04-28T04:40:51.276Z,98381.62
2019-04-28T04:43:23.013Z,98382.41
2019-04-28T04:45:51.000Z,98377.04
2019-04-28T04:48:21.528Z,98376.14
2019-04-28T04:50:51.027Z,98376.42
2019-04-28T04:53:20.786Z,98383.45
2019-04-28T04:55:50.535Z,98388.61
2019-04-28T04:58:21.219Z,98389.40
2019-04-28T05:00:53.161Z,98388.95
2019-04-28T05:03:23.326Z,98396.78
2019-04-28T05:05:51.532Z,98401.47
2019-04-28T05:08:20.278Z,98405.74
2019-04-28T05:10:50.427Z,98395.60
2019-04-28T05:13:20.083Z,98406.85
2019-04-28T05:15:48.426Z,98406.23
2019-04-28T05:18:16.616Z,98412.12
2019-04-28T05:20:44.819Z,98416.75
2019-04-28T05:23:14.640Z,98417.45
2019-04-28T05:25:44.016Z,98415.23
2019-04-28T05:28:12.541Z,98413.18
2019-04-28T05:30:42.972Z,98422.05
2019-04-28T05:33:12.314Z,98426.20
2019-04-28T05:35:40.513Z,98420.11
2019-04-28T05:38:09.972Z,98423.30
2019-04-28T05:40:39.878Z,98424.33
2019-04-28T05:43:08.447Z,98431.06
2019-04-28T05:45:36.646Z,98431.30
2019-04-28T05:48:04.843Z,98424.95
2019-04-28T05:50:34.687Z,98435.84
2019-04-28T05:53:04.831Z,98441.42
2019-04-28T05:55:34.688Z,98438.03
2019-04-28T05:58:10.502Z,98451.74
2019-04-28T06:00:52.592Z,98454.34
2019-04-28T06:03:22.436Z,98455.71
2019-04-28T06:05:51.001Z,98460.13
2019-04-28T06:08:27.147Z,98459.39
2019-04-28T06:10:55.355Z,98457.66
2019-04-28T06:13:23.904Z,98463.05
2019-04-28T06:15:52.118Z,98460.97
2019-04-28T06:18:20.627Z,98461.31
2019-04-28T06:20:49.823Z,98462.80
2019-04-28T06:23:18.033Z,98465.44
2019-04-28T06:25:46.253Z,98468.64
2019-04-28T06:28:14.460Z,98474.09
2019-04-28T06:30:42.681Z,98470.91
2019-04-28T06:33:10.883Z,98474.72
2019-04-28T06:35:39.414Z,98471.36
2019-04-28T06:38:07.912Z,98478.11
2019-04-28T06:40:36.113Z,98479.27
2019-04-28T06:43:04.320Z,98472.96
2019-04-28T06:45:32.828Z,98475.27
2019-04-28T06:48:01.026Z,98482.56
2019-04-28T06:50:29.235Z,98489.20
2019-04-28T06:52:57.435Z,98492.10
2019-04-28T06:55:25.929Z,98490.13
2019-04-28T06:57:54.126Z,98483.27
2019-04-28T07:00:22.340Z,98486.11
2019-04-28T07:02:50.537Z,98486.32
2019-04-28T07:05:18.750Z,98491.17
2019-04-28T07:07:46.995Z,98490.98
2019-04-28T07:10:15.160Z,98492.73
2019-04-28T07:12:43.373Z,98493.22
2019-04-28T07:15:11.584Z,98496.16
2019-04-28T07:17:39.778Z,98495.08
2019-04-28T07:20:09.637Z,98491.77
2019-04-28T07:22:37.837Z,98498.30
2019-04-28T07:25:06.305Z,98496.92
2019-04-28T07:27:34.508Z,98495.95
2019-04-28T07:30:03.423Z,98498.24
2019-04-28T07:32:31.637Z,98501.47
2019-04-28T07:35:00.179Z,98497.20
2019-04-28T07:37:28.385Z,98504.75
2019-04-28T07:39:56.967Z,98510.22
2019-04-28T07:42:25.119Z,98508.47
2019-04-28T07:44:54.955Z,98515.07
2019-04-28T07:47:23.165Z,98512.39
2019-04-28T07:49:51.370Z,98516.84
2019-04-28T07:52:21.221Z,98522.63
2019-04-28T07:54:49.795Z,98520.31
2019-04-28T07:57:17.987Z,98523.12
2019-04-28T07:59:46.536Z,98528.45
2019-04-28T08:02:14.740Z,98526.59
2019-04-28T08:04:42.956Z,98525.94
2019-04-28T08:07:11.170Z,98532.45
2019-04-28T08:09:39.384Z,98535.24
2019-04-28T08:12:07.582Z,98532.76
2019-04-28T08:14:35.790Z,98545.14
2019-04-28T08:17:03.999Z,98539.76
2019-04-28T08:19:32.210Z,98543.33
2019-04-28T08:22:00.408Z,98539.94
2019-04-28T08:24:28.859Z,98546.09
2019-04-28T08:26:57.354Z,98547.46
2019-04-28T08:29:25.555Z,98536.41
2019-04-28T08:31:55.409Z,98546.04
2019-04-28T08:34:23.620Z,98543.86
2019-04-28T08:36:52.106Z,98549.30
2019-04-28T08:39:23.064Z,98547.84
2019-04-28T08:41:50.246Z,98547.25
2019-04-28T08:44:18.776Z,98552.13
2019-04-28T08:46:47.363Z,98551.95
2019-04-28T08:49:15.558Z,98557.34
2019-04-28T08:51:43.764Z,98555.89
2019-04-28T08:54:12.001Z,98563.64
2019-04-28T08:56:40.199Z,98570.22
2019-04-28T08:59:08.425Z,98564.75
2019-04-28T09:01:36.638Z,98572.00
2019-04-28T09:04:15.145Z,98582.01
2019-04-28T09:06:35.115Z,98572.66
2019-04-28T09:09:04.960Z,98582.67
2019-04-28T09:11:37.383Z,98580.84
2019-04-28T09:14:05.558Z,98582.10
2019-04-28T09:16:34.054Z,98579.10
2019-04-28T09:19:02.255Z,98592.29
2019-04-28T09:21:30.469Z,98588.80
2019-04-28T09:23:58.674Z,98586.80
2019-04-28T09:26:26.905Z,98592.08
2019-04-28T09:28:55.122Z,98601.96
2019-04-28T09:31:23.336Z,98598.94
2019-04-28T09:33:51.875Z,98596.59
2019-04-28T09:36:20.106Z,98595.70
2019-04-28T09:38:48.377Z,98596.65
2019-04-28T09:41:16.901Z,98594.64
2019-04-28T09:43:52.424Z,98599.52
2019-04-28T09:46:22.343Z,98603.12
2019-04-28T09:48:50.663Z,98603.22
2019-04-28T09:51:18.866Z,98604.06
2019-04-28T09:53:47.087Z,98601.47
2019-04-28T09:56:15.282Z,98604.05
2019-04-28T09:58:43.944Z,98593.94
2019-04-28T10:01:12.271Z,98594.78
2019-04-28T10:03:40.487Z,98596.66
2019-04-28T10:06:08.800Z,98592.97
2019-04-28T10:08:37.017Z,98600.73
2019-04-28T10:11:05.226Z,98595.95
2019-04-28T10:13:33.806Z,98599.94
2019-04-28T10:16:02.330Z,98603.23
2019-04-28T10:18:30.625Z,98611.48
2019-04-28T10:20:59.149Z,98604.26
2019-04-28T10:23:27.731Z,98603.26
2019-04-28T10:25:56.211Z,98602.92
2019-04-28T10:28:24.691Z,98602.56
2019-04-28T10:30:52.898Z,98613.05
2019-04-28T10:33:21.448Z,98618.50
2019-04-28T10:35:49.664Z,98623.06
2019-04-28T10:38:18.205Z,98614.77
2019-04-28T10:40:53.742Z,98616.31
2019-04-28T10:43:21.973Z,98615.17
2019-04-28T10:45:51.043Z,98627.50
2019-04-28T10:48:19.609Z,98628.77
2019-04-28T10:50:47.886Z,98637.10
2019-04-28T10:53:16.108Z,98631.14
2019-04-28T10:55:44.364Z,98638.83
2019-04-28T10:58:12.582Z,98642.02
2019-04-28T11:00:41.705Z,98648.12
2019-04-28T11:03:10.287Z,98652.07
2019-04-28T11:05:40.120Z,98654.74
2019-04-28T11:08:10.040Z,98654.55
2019-04-28T11:10:38.244Z,98652.59
2019-04-28T11:13:06.526Z,98651.06
2019-04-28T11:15:36.378Z,98658.27
2019-04-28T11:18:05.638Z,98650.14
2019-04-28T11:20:33.855Z,98650.55
2019-04-28T11:23:02.068Z,98652.73
2019-04-28T11:25:30.694Z,98651.80
2019-04-28T11:27:58.920Z,98656.30
2019-04-28T11:30:28.591Z,98650.23
2019-04-28T11:33:01.359Z,98651.10
2019-04-28T11:35:31.811Z,98654.11
2019-04-28T11:38:00.094Z,98665.30
2019-04-28T11:40:28.430Z,98667.86
2019-04-28T11:42:56.940Z,98657.44
2019-04-28T11:45:26.326Z,98659.80
2019-04-28T11:47:54.809Z,98656.43
2019-04-28T11:50:23.024Z,98660.48
2019-04-28T11:52:51.255Z,98660.77
2019-04-28T11:55:19.464Z,98660.13
2019-04-28T11:57:47.659Z,98660.14
2019-04-28T12:00:29.927Z,98661.77
2019-04-28T12:02:58.134Z,98657.19
2019-04-28T12:05:34.407Z,98666.31
2019-04-28T12:08:44.760Z,98647.47
2019-04-28T12:11:14.941Z,98655.38
2019-04-28T12:14:01.194Z,98657.65
2019-04-28T12:16:47.541Z,98652.13
2019-04-28T12:19:17.391Z,98657.98
2019-04-28T12:21:45.930Z,98658.33
2019-04-28T12:24:14.211Z,98665.04
2019-04-28T12:26:42.415Z,98670.16
2019-04-28T12:29:10.969Z,98672.68
2019-04-28T12:31:39.442Z,98682.98
2019-04-28T12:34:08.024Z,98676.63
2019-04-28T12:36:36.222Z,98683.37
2019-04-28T12:39:07.188Z,98686.77
2019-04-28T12:41:35.388Z,98694.42
2019-04-28T12:44:03.605Z,98698.95
2019-04-28T12:46:32.067Z,98696.80
2019-04-28T12:49:02.207Z,98699.08
2019-04-28T12:51:30.775Z,98694.83
2019-04-28T12:54:00.627Z,98694.89
2019-04-28T12:56:28.835Z,98691.91
2019-04-28T12:58:58.673Z,98695.12
2019-04-28T13:01:43.809Z,98699.28
2019-04-28T13:04:26.143Z,98699.55
2019-04-28T13:07:04.968Z,98706.66
2019-04-28T13:09:33.552Z,98708.38
2019-04-28T13:12:01.759Z,98711.16
2019-04-28T13:14:30.068Z,98712.77
2019-04-28T13:16:58.802Z,98713.86
2019-04-28T13:19:27.384Z,98717.44
2019-04-28T13:21:55.578Z,98718.91
2019-04-28T13:24:23.790Z,98721.23
2019-04-28T13:26:52.423Z,98718.67
2019-04-28T13:29:20.888Z,98711.30
2019-04-28T13:31:49.092Z,98716.30
2019-04-28T13:34:19.305Z,98711.45
2019-04-28T13:36:47.484Z,98718.27
2019-04-28T13:39:17.324Z,98708.91
2019-04-28T13:41:45.532Z,98712.70
2019-04-28T13:44:15.385Z,98712.39
2019-04-28T13:46:43.594Z,98711.05
2019-04-28T13:49:13.667Z,98710.89
2019-04-28T13:51:44.893Z,98709.34
2019-04-28T13:54:14.715Z,98710.19
2019-04-28T13:56:42.974Z,98704.23
2019-04-28T13:59:12.767Z,98704.23
2019-04-28T14:01:54.769Z,98703.66
2019-04-28T14:04:30.694Z,98701.60
2019-04-28T14:06:59.088Z,98701.92
2019-04-28T14:09:25.077Z,98707.48
2019-04-28T14:11:50.791Z,98708.52
2019-04-28T14:14:16.552Z,98712.22
2019-04-28T14:16:42.366Z,98716.41
2019-04-28T14:19:08.407Z,98721.47
2019-04-28T14:21:34.358Z,98725.20
2019-04-28T14:24:00.079Z,98715.01
2019-04-28T14:26:25.846Z,98725.84
2019-04-28T14:28:51.620Z,98725.99
2019-04-28T14:31:17.727Z,98724.64
2019-04-28T14:33:43.491Z,98727.67
2019-04-28T14:36:09.374Z,98722.77
2019-04-28T14:38:35.167Z,98729.52
2019-04-28T14:41:00.977Z,98727.14
2019-04-28T14:43:27.012Z,98732.19
2019-04-28T14:45:52.844Z,98728.98
2019-04-28T14:48:18.677Z,98733.86
2019-04-28T14:50:44.389Z,98736.42
2019-04-28T14:53:10.304Z,98733.19
2019-04-28T14:55:36.432Z,98735.39
2019-04-28T14:58:02.197Z,98738.30
2019-04-28T15:00:30.195Z,98731.19
2019-04-28T15:03:00.651Z,98735.09
2019-04-28T15:05:28.364Z,98735.42
2019-04-28T15:08:05.049Z,98735.77
2019-04-28T15:10:32.776Z,98736.80
2019-04-28T15:12:58.981Z,98736.80
2019-04-28T15:15:24.964Z,98733.78
2019-04-28T15:17:50.884Z,98715.53
2019-04-28T15:20:16.669Z,98721.64
2019-04-28T15:22:42.432Z,98716.06
2019-04-28T15:25:08.189Z,98718.12
2019-04-28T15:27:33.981Z,98721.32
2019-04-28T15:30:11.040Z,98718.12
2019-04-28T15:32:37.725Z,98718.62
2019-04-28T15:35:04.495Z,98714.23
2019-04-28T15:37:30.269Z,98725.38
2019-04-28T15:39:56.030Z,98728.55
2019-04-28T15:42:22.077Z,98727.91
2019-04-28T15:44:47.853Z,98738.22
2019-04-28T15:47:13.917Z,98738.22
2019-04-28T15:49:39.675Z,98735.66
2019-04-28T15:52:05.436Z,98734.34
2019-04-28T15:54:31.188Z,98734.48
2019-04-28T15:56:56.957Z,98737.06
2019-04-28T15:59:23.006Z,98746.52
2019-04-28T16:01:48.782Z,98747.23
2019-04-28T16:04:18.009Z,98741.62
2019-04-28T16:06:42.542Z,98728.41
2019-04-28T16:09:10.483Z,98728.41
2019-04-28T16:11:36.604Z,98744.12
2019-04-28T16:14:02.365Z,98742.41
2019-04-28T16:16:28.189Z,98732.10
2019-04-28T16:18:54.267Z,98740.91
2019-04-28T16:21:20.034Z,98736.16
2019-04-28T16:23:46.061Z,98739.71
2019-04-28T16:26:11.865Z,98739.22
2019-04-28T16:28:37.625Z,98736.13
2019-04-28T16:31:03.881Z,98744.23
2019-04-28T16:33:29.992Z,98742.36
2019-04-28T16:35:55.786Z,98743.20
2019-04-28T16:38:23.639Z,98743.20
2019-04-28T16:40:49.607Z,98748.41
2019-04-28T16:43:15.724Z,98757.01
2019-04-28T16:45:41.498Z,98754.48
2019-04-28T16:48:07.569Z,98754.48
2019-04-28T16:50:33.349Z,98756.97
2019-04-28T16:52:59.117Z,98756.97
2019-04-28T16:55:35.991Z,98763.91
2019-04-28T16:58:20.405Z,98753.09
2019-04-28T17:00:48.406Z,98753.09
2019-04-28T17:03:14.266Z,98748.80
2019-04-28T17:05:40.028Z,98758.68
2019-04-28T17:08:05.817Z,98753.28
2019-04-28T17:10:31.884Z,98762.94
2019-04-28T17:12:58.011Z,98761.42
2019-04-28T17:15:23.793Z,98750.95
2019-04-28T17:17:49.857Z,98750.95
2019-04-28T17:20:15.664Z,98759.77
2019-04-28T17:22:41.472Z,98759.77
2019-04-28T17:25:07.233Z,98759.56
2019-04-28T17:27:33.345Z,98759.56
2019-04-28T17:29:59.131Z,98762.91
2019-04-28T17:32:24.952Z,98762.91
2019-04-28T17:34:50.995Z,98773.89
